Time;durP1;ratioP1;P1;durP2;ratioP2;P2;SDS_P1;SDS_P2;PMS_P1;PMS_P2;Temp;Humidity;BMP_temperature;BMP_pressure;BME280_temperature;BME280_humidity;BME280_pressure;Samples;Min_cycle;Max_cycle;Signal;HPM_P1;HPM_P2
2021/04/03 00:00:58;;;;;;;9.23;5.25;;;5.00;99.90;;;;;;5034675;28;20032;-82
2021/04/03 00:03:26;;;;;;;8.85;5.25;;;5.00;99.90;;;;;;5037560;28;20118;-83
2021/04/03 00:05:52;;;;;;;8.40;5.57;;;4.90;99.90;;;;;;5040169;28;20042;-81
2021/04/03 00:08:20;;;;;;;8.63;5.25;;;4.90;99.90;;;;;;5044017;28;20448;-82
2021/04/03 00:10:58;;;;;;;9.45;5.18;;;4.90;99.90;;;;;;5053550;28;20116;-82
2021/04/03 00:13:29;;;;;;;9.93;5.53;;;4.80;99.90;;;;;;5034325;28;20029;-82
2021/04/03 00:15:56;;;;;;;8.70;5.40;;;4.80;99.90;;;;;;5035746;28;20108;-80
2021/04/03 00:18:22;;;;;;;8.98;5.32;;;4.70;99.90;;;;;;5044207;28;20058;-82
2021/04/03 00:20:49;;;;;;;10.52;5.82;;;4.70;99.90;;;;;;5042720;28;20119;-83
2021/04/03 00:23:16;;;;;;;8.68;4.95;;;4.70;99.90;;;;;;5041850;28;20032;-81
2021/04/03 00:25:42;;;;;;;9.05;5.18;;;4.70;99.90;;;;;;5037254;28;20029;-82
2021/04/03 00:28:08;;;;;;;10.13;6.20;;;4.60;99.90;;;;;;5038676;28;20041;-81
2021/04/03 00:30:33;;;;;;;10.13;5.93;;;4.70;99.90;;;;;;5042575;28;20043;-82
2021/04/03 00:33:02;;;;;;;11.15;6.10;;;4.60;99.90;;;;;;5037116;28;20760;-81
2021/04/03 00:35:30;;;;;;;10.45;6.45;;;4.60;99.90;;;;;;5032473;28;20516;-83
2021/04/03 00:37:56;;;;;;;12.85;6.50;;;4.60;99.90;;;;;;5035107;28;20060;-83
2021/04/03 00:40:27;;;;;;;10.82;6.07;;;4.60;99.90;;;;;;5034186;28;20064;-82
2021/04/03 00:42:52;;;;;;;8.30;5.65;;;4.60;99.90;;;;;;5040011;28;20053;-82
2021/04/03 00:45:21;;;;;;;10.17;6.43;;;4.60;99.90;;;;;;5035173;28;20460;-82
2021/04/03 00:47:46;;;;;;;10.20;6.05;;;4.60;99.90;;;;;;5038015;28;20053;-82
2021/04/03 00:50:14;;;;;;;12.23;7.07;;;4.60;99.90;;;;;;5037293;28;20503;-83
2021/04/03 00:52:40;;;;;;;10.50;6.38;;;4.60;99.90;;;;;;5036397;28;20124;-84
2021/04/03 00:55:10;;;;;;;11.55;6.22;;;4.60;99.90;;;;;;5040174;28;20572;-81
2021/04/03 00:57:36;;;;;;;9.57;5.93;;;4.60;99.90;;;;;;5042671;28;20033;-81
2021/04/03 01:00:06;;;;;;;9.20;5.63;;;4.60;99.90;;;;;;5034096;28;21442;-82
2021/04/03 01:02:32;;;;;;;9.27;5.78;;;4.60;99.90;;;;;;5042832;28;20134;-81
2021/04/03 01:04:59;;;;;;;11.20;6.85;;;4.70;99.90;;;;;;5039854;28;20327;-83
2021/04/03 01:07:25;;;;;;;11.40;6.65;;;4.70;99.90;;;;;;5045376;28;20063;-82
2021/04/03 01:09:50;;;;;;;15.15;8.95;;;4.80;99.90;;;;;;5049722;28;20036;-82
2021/04/03 01:12:21;;;;;;;16.35;10.18;;;4.80;99.90;;;;;;5038056;28;20032;-81
2021/04/03 01:15:02;;;;;;;13.77;8.57;;;4.80;99.90;;;;;;5059423;28;20356;-82
2021/04/03 01:17:40;;;;;;;11.63;7.15;;;4.80;99.90;;;;;;5065722;28;20052;-82
2021/04/03 01:20:28;;;;;;;10.68;7.13;;;4.80;99.90;;;;;;5045786;28;20124;-82
2021/04/03 01:23:18;;;;;;;9.98;6.15;;;4.80;99.90;;;;;;5039502;28;20037;-84
2021/04/03 01:26:02;;;;;;;10.07;6.60;;;4.90;99.90;;;;;;5050208;28;20033;-84
2021/04/03 01:28:53;;;;;;;9.25;6.22;;;4.90;99.90;;;;;;5041145;28;20051;-82
2021/04/03 01:31:19;;;;;;;11.30;6.90;;;4.90;99.90;;;;;;5037905;28;20029;-82
2021/04/03 01:33:46;;;;;;;9.90;6.03;;;5.00;99.90;;;;;;5035066;28;20619;-83
2021/04/03 01:36:20;;;;;;;8.70;5.78;;;4.90;99.90;;;;;;5042439;28;20108;-83
2021/04/03 01:38:52;;;;;;;8.85;5.90;;;4.90;99.90;;;;;;5043504;28;20025;-82
2021/04/03 01:41:23;;;;;;;9.95;6.32;;;5.00;99.90;;;;;;5039886;28;20519;-82
2021/04/03 01:43:51;;;;;;;10.80;6.40;;;4.90;99.90;;;;;;5038556;28;20029;-83
2021/04/03 01:46:18;;;;;;;11.23;6.60;;;4.80;99.90;;;;;;5039845;28;20036;-82
2021/04/03 01:48:44;;;;;;;9.45;6.43;;;4.80;99.90;;;;;;5051726;28;20028;-82
2021/04/03 01:51:11;;;;;;;10.77;6.20;;;4.80;99.90;;;;;;5039172;28;20116;-82
2021/04/03 01:53:38;;;;;;;11.45;5.63;;;4.80;99.90;;;;;;5044802;28;20018;-81
2021/04/03 01:56:05;;;;;;;9.55;5.63;;;4.70;99.90;;;;;;5044168;28;20029;-81
2021/04/03 01:58:32;;;;;;;12.85;5.93;;;4.70;99.90;;;;;;5039301;28;20132;-81
2021/04/03 02:00:59;;;;;;;10.05;5.22;;;4.70;99.90;;;;;;5043036;28;20063;-81
2021/04/03 02:03:25;;;;;;;10.20;4.93;;;4.60;99.90;;;;;;5033964;28;20049;-81
2021/04/03 02:05:51;;;;;;;9.85;4.32;;;4.50;99.90;;;;;;5044653;28;20096;-82
2021/04/03 02:08:18;;;;;;;11.25;5.38;;;4.50;99.90;;;;;;5045172;28;20440;-82
2021/04/03 02:10:45;;;;;;;9.45;5.18;;;4.50;99.90;;;;;;5042650;28;20504;-81
2021/04/03 02:13:13;;;;;;;11.88;5.60;;;4.40;99.90;;;;;;5044593;28;21368;-82
2021/04/03 02:15:41;;;;;;;11.23;5.18;;;4.40;99.90;;;;;;5042076;28;20105;-81
2021/04/03 02:18:08;;;;;;;7.35;3.88;;;4.40;99.90;;;;;;5041201;28;20045;-81
2021/04/03 02:20:35;;;;;;;11.77;4.30;;;4.40;99.90;;;;;;5040361;28;20543;-82
2021/04/03 02:23:01;;;;;;;7.72;4.03;;;4.30;99.90;;;;;;5048197;28;20087;-82
2021/04/03 02:25:27;;;;;;;5.68;3.17;;;4.30;99.90;;;;;;5034697;28;20029;-82
2021/04/03 02:27:52;;;;;;;12.40;5.47;;;4.30;99.90;;;;;;5038733;28;20053;-82
2021/04/03 02:30:23;;;;;;;10.32;5.28;;;4.30;99.90;;;;;;5044931;28;20366;-83
2021/04/03 02:32:53;;;;;;;8.50;4.72;;;4.30;99.90;;;;;;5037861;28;20028;-83
2021/04/03 02:35:21;;;;;;;7.85;4.70;;;4.40;99.90;;;;;;5041258;28;20033;-82
2021/04/03 02:37:51;;;;;;;8.97;4.93;;;4.40;99.90;;;;;;5041581;28;20114;-81
2021/04/03 02:40:19;;;;;;;;;;;4.40;99.90;;;;;;5040516;28;20053;-82
2021/04/03 02:42:53;;;;;;;12.48;4.65;;;4.30;99.90;;;;;;5042114;28;19931;-83
2021/04/03 02:45:21;;;;;;;7.20;4.57;;;4.30;99.90;;;;;;5062867;28;20021;-81
2021/04/03 02:47:49;;;;;;;11.25;4.93;;;4.30;99.90;;;;;;5040337;28;20071;-81
2021/04/03 02:50:20;;;;;;;10.30;4.90;;;4.30;99.90;;;;;;5046979;28;20124;-81
2021/04/03 02:52:51;;;;;;;10.80;4.65;;;4.30;99.90;;;;;;5044587;28;20388;-81
2021/04/03 02:55:18;;;;;;;9.57;4.13;;;4.30;99.90;;;;;;5044637;28;20479;-82
2021/04/03 02:57:46;;;;;;;7.85;4.40;;;4.20;99.90;;;;;;5042417;28;20590;-82
2021/04/03 03:00:13;;;;;;;8.90;4.72;;;4.20;99.90;;;;;;5042948;28;20018;-82
2021/04/03 03:02:39;;;;;;;10.60;4.43;;;4.20;99.90;;;;;;5047070;28;20033;-80
2021/04/03 03:05:06;;;;;;;9.38;3.67;;;4.20;99.90;;;;;;5036658;28;20088;-82
2021/04/03 03:07:34;;;;;;;8.98;4.30;;;4.10;99.90;;;;;;5051054;28;20090;-82
2021/04/03 03:10:01;;;;;;;9.35;5.03;;;4.20;99.90;;;;;;5041809;28;20024;-82
2021/04/03 03:12:30;;;;;;;9.20;4.63;;;4.20;99.90;;;;;;5039382;28;20107;-82
2021/04/03 03:14:58;;;;;;;9.52;5.32;;;4.10;99.90;;;;;;5040235;28;20029;-81
2021/04/03 03:17:25;;;;;;;10.07;4.90;;;4.20;99.90;;;;;;5031108;28;20041;-84
2021/04/03 03:19:51;;;;;;;9.60;5.35;;;4.20;99.90;;;;;;5041633;28;20314;-82
2021/04/03 03:22:18;;;;;;;9.30;5.20;;;4.10;99.90;;;;;;5038542;28;20037;-83
2021/04/03 03:24:43;;;;;;;10.20;4.88;;;4.00;99.90;;;;;;5037265;28;20067;-83
2021/04/03 03:27:10;;;;;;;8.27;4.53;;;4.00;99.90;;;;;;5069131;28;20591;-84
2021/04/03 03:29:37;;;;;;;10.07;4.40;;;4.00;99.90;;;;;;5047647;28;20037;-84
2021/04/03 03:32:04;;;;;;;10.50;4.90;;;4.00;99.90;;;;;;5038061;28;20037;-83
2021/04/03 03:34:29;;;;;;;8.63;4.80;;;3.90;99.90;;;;;;5044808;28;20362;-84
2021/04/03 03:36:57;;;;;;;8.68;5.00;;;4.00;99.90;;;;;;5043476;28;20052;-84
2021/04/03 03:39:23;;;;;;;13.03;4.77;;;4.00;99.90;;;;;;5045555;28;20045;-84
2021/04/03 03:41:49;;;;;;;11.33;4.53;;;4.00;99.90;;;;;;5034744;28;20087;-82
2021/04/03 03:44:15;;;;;;;11.57;4.60;;;4.00;99.90;;;;;;5044765;28;20017;-83
2021/04/03 03:46:41;;;;;;;9.68;4.65;;;4.00;99.90;;;;;;5039770;28;20476;-84
2021/04/03 03:49:06;;;;;;;11.93;5.20;;;4.00;99.90;;;;;;5044818;28;20280;-82
2021/04/03 03:51:32;;;;;;;11.07;5.23;;;4.00;99.90;;;;;;5034841;28;20033;-83
2021/04/03 03:53:58;;;;;;;13.25;4.85;;;4.00;99.90;;;;;;5076817;28;20120;-82
2021/04/03 03:56:24;;;;;;;8.73;5.00;;;4.00;99.90;;;;;;5038666;28;20637;-82
2021/04/03 03:58:51;;;;;;;9.40;5.00;;;4.00;99.90;;;;;;5041705;28;20816;-85
2021/04/03 04:01:16;;;;;;;10.02;5.50;;;4.00;99.90;;;;;;5038506;28;20074;-82
2021/04/03 04:03:42;;;;;;;10.93;5.65;;;4.10;99.90;;;;;;5037275;28;20132;-84
2021/04/03 04:06:07;;;;;;;11.77;5.93;;;4.10;99.90;;;;;;5043181;28;20033;-82
2021/04/03 04:08:34;;;;;;;11.05;5.70;;;4.10;99.90;;;;;;5045377;28;20040;-82
2021/04/03 04:11:00;;;;;;;12.07;6.07;;;4.10;99.90;;;;;;5028831;28;20036;-82
2021/04/03 04:13:26;;;;;;;9.88;5.35;;;4.10;99.90;;;;;;5040641;28;20024;-81
2021/04/03 04:15:54;;;;;;;11.63;5.50;;;4.10;99.90;;;;;;5047842;28;20045;-82
2021/04/03 04:18:20;;;;;;;10.27;5.53;;;4.00;99.90;;;;;;5042642;28;20043;-81
2021/04/03 04:20:45;;;;;;;13.48;5.70;;;4.10;99.90;;;;;;5045446;28;20381;-83
2021/04/03 04:23:11;;;;;;;11.25;5.40;;;4.00;99.90;;;;;;5046947;28;20049;-81
2021/04/03 04:25:37;;;;;;;10.32;5.43;;;3.90;99.90;;;;;;5038444;28;20049;-82
2021/04/03 04:28:02;;;;;;;8.85;5.28;;;4.00;99.90;;;;;;5036191;28;20843;-81
2021/04/03 04:30:28;;;;;;;13.18;5.63;;;3.90;99.90;;;;;;5048250;28;20033;-82
2021/04/03 04:32:54;;;;;;;9.40;4.80;;;4.00;99.90;;;;;;5055662;28;20118;-82
2021/04/03 04:35:19;;;;;;;16.13;5.78;;;4.00;99.90;;;;;;5049498;28;20037;-82
2021/04/03 04:37:45;;;;;;;9.43;5.13;;;4.00;99.90;;;;;;5032669;28;20045;-82
2021/04/03 04:40:14;;;;;;;13.27;5.32;;;4.00;99.90;;;;;;5039383;28;20029;-82
2021/04/03 04:42:42;;;;;;;9.60;5.57;;;4.00;99.90;;;;;;5031395;28;20026;-82
2021/04/03 04:45:09;;;;;;;9.52;5.68;;;4.00;99.90;;;;;;5035145;28;20029;-83
2021/04/03 04:47:35;;;;;;;11.93;5.00;;;4.00;99.90;;;;;;5046467;28;20061;-82
2021/04/03 04:50:01;;;;;;;10.32;5.30;;;4.10;99.90;;;;;;5043656;28;20083;-83
2021/04/03 04:52:27;;;;;;;15.15;5.47;;;4.10;99.90;;;;;;5035207;28;20485;-82
2021/04/03 04:54:52;;;;;;;13.25;6.00;;;4.10;99.90;;;;;;5043020;28;20314;-81
2021/04/03 04:57:18;;;;;;;11.20;5.55;;;4.00;99.90;;;;;;5041592;28;20103;-81
2021/04/03 04:59:44;;;;;;;9.65;5.47;;;4.00;99.90;;;;;;5043542;28;20101;-83
2021/04/03 05:02:09;;;;;;;9.00;4.45;;;4.00;99.90;;;;;;5040415;28;20573;-81
2021/04/03 05:04:35;;;;;;;13.15;5.22;;;3.90;99.90;;;;;;5031929;28;20166;-83
2021/04/03 05:07:00;;;;;;;10.93;5.60;;;4.00;99.90;;;;;;5039282;28;20049;-82
2021/04/03 05:09:26;;;;;;;14.02;5.82;;;3.90;99.90;;;;;;5036675;28;20060;-83
2021/04/03 05:11:51;;;;;;;9.70;5.18;;;4.00;99.90;;;;;;5044858;28;20037;-82
2021/04/03 05:14:17;;;;;;;10.52;5.15;;;3.90;99.90;;;;;;5036284;28;20032;-80
2021/04/03 05:16:42;;;;;;;10.33;5.60;;;3.90;99.90;;;;;;5038106;28;20037;-82
2021/04/03 05:19:08;;;;;;;10.65;5.53;;;3.90;99.90;;;;;;5036768;28;20028;-82
2021/04/03 05:21:34;;;;;;;8.85;5.10;;;3.90;99.90;;;;;;5037486;28;20153;-83
2021/04/03 05:23:59;;;;;;;10.13;4.90;;;4.00;99.90;;;;;;5034288;28;20400;-81
2021/04/03 05:26:25;;;;;;;12.52;5.80;;;4.00;99.90;;;;;;5040630;28;20468;-82
2021/04/03 05:28:51;;;;;;;10.57;5.07;;;3.90;99.90;;;;;;5036241;28;20033;-82
2021/04/03 05:31:22;;;;;;;16.23;5.35;;;3.80;99.90;;;;;;5030581;28;20030;-83
2021/04/03 05:33:48;;;;;;;10.85;4.10;;;3.80;99.90;;;;;;5042873;28;20389;-81
2021/04/03 05:36:14;;;;;;;9.97;4.63;;;3.60;99.90;;;;;;5040859;28;20024;-81
2021/04/03 05:38:41;;;;;;;11.30;4.50;;;3.60;99.90;;;;;;5052133;28;20038;-83
2021/04/03 05:41:07;;;;;;;8.53;4.37;;;3.60;99.90;;;;;;5037088;28;20044;-81
2021/04/03 05:43:34;;;;;;;8.07;4.00;;;3.70;99.90;;;;;;5040186;28;20041;-82
2021/04/03 05:46:00;;;;;;;9.55;3.85;;;3.70;99.90;;;;;;5041979;28;20051;-82
2021/04/03 05:48:26;;;;;;;8.63;3.90;;;3.80;99.90;;;;;;5045896;28;20448;-81
2021/04/03 05:50:54;;;;;;;6.93;2.50;;;3.70;99.90;;;;;;5045278;28;20086;-82
2021/04/03 05:53:20;;;;;;;9.33;3.87;;;3.50;99.90;;;;;;5045110;28;20059;-83
2021/04/03 05:55:50;;;;;;;7.63;3.43;;;3.60;99.90;;;;;;5044966;28;20503;-81
2021/04/03 05:58:15;;;;;;;7.80;3.08;;;3.50;99.90;;;;;;5048785;28;20037;-83
2021/04/03 06:00:41;;;;;;;8.80;3.93;;;3.50;99.90;;;;;;5040568;28;20028;-83
2021/04/03 06:03:07;;;;;;;8.27;3.17;;;3.60;99.90;;;;;;5042614;28;20039;-83
2021/04/03 06:05:32;;;;;;;8.43;3.93;;;3.70;99.90;;;;;;5045054;28;20372;-82
2021/04/03 06:07:58;;;;;;;9.52;3.38;;;3.70;99.90;;;;;;5046111;28;20326;-81
2021/04/03 06:10:23;;;;;;;11.18;4.43;;;3.80;99.90;;;;;;5050001;28;20029;-81
2021/04/03 06:12:50;;;;;;;8.63;3.50;;;3.90;99.90;;;;;;5040678;28;20056;-80
2021/04/03 06:15:36;;;;;;;7.47;3.33;;;4.00;99.90;;;;;;5032265;28;20086;-82
2021/04/03 06:18:08;;;;;;;12.48;3.33;;;4.00;99.90;;;;;;5043384;28;20041;-82
2021/04/03 06:20:36;;;;;;;7.45;3.50;;;4.20;99.90;;;;;;5049279;28;20370;-82
2021/04/03 06:23:04;;;;;;;8.63;3.53;;;4.10;99.90;;;;;;5037436;28;20049;-82
2021/04/03 06:25:29;;;;;;;5.45;2.78;;;4.00;99.90;;;;;;5042401;28;20040;-83
2021/04/03 06:28:05;;;;;;;9.80;3.15;;;4.00;99.90;;;;;;5045040;28;20028;-81
2021/04/03 06:30:33;;;;;;;6.30;2.88;;;4.20;99.90;;;;;;5043854;28;20174;-82
2021/04/03 06:33:19;;;;;;;6.63;3.05;;;4.30;99.90;;;;;;5035952;28;20127;-82
2021/04/03 06:36:04;;;;;;;8.32;3.17;;;4.30;99.90;;;;;;5033240;28;20037;-84
2021/04/03 06:38:29;;;;;;;7.28;3.13;;;4.50;99.90;;;;;;5040591;28;20421;-83
2021/04/03 06:41:24;;;;;;;9.50;3.15;;;4.40;99.90;;;;;;5052470;28;20036;-83
2021/04/03 06:44:10;;;;;;;7.10;2.95;;;4.30;99.90;;;;;;5057735;28;20032;-83
2021/04/03 06:46:38;;;;;;;8.82;3.67;;;4.20;99.90;;;;;;5052999;28;20472;-85
2021/04/03 06:49:05;;;;;;;8.60;3.00;;;4.30;99.90;;;;;;5049504;28;20044;-84
2021/04/03 06:51:31;;;;;;;6.60;3.13;;;4.40;99.90;;;;;;5040945;28;20024;-81
2021/04/03 06:53:59;;;;;;;6.65;3.30;;;4.30;99.90;;;;;;5050773;28;20033;-83
2021/04/03 06:56:39;;;;;;;6.65;3.08;;;4.40;99.90;;;;;;5040049;28;20087;-82
2021/04/03 06:59:10;;;;;;;13.52;3.58;;;4.30;99.90;;;;;;5043510;28;20041;-82
2021/04/03 07:01:55;;;;;;;4.70;2.60;;;4.30;99.90;;;;;;5037556;28;20138;-81
2021/04/03 07:04:24;;;;;;;6.55;3.28;;;4.40;99.90;;;;;;5042501;28;20072;-80
2021/04/03 07:06:50;;;;;;;7.85;3.13;;;4.40;99.90;;;;;;5039953;28;20111;-82
2021/04/03 07:09:18;;;;;;;6.43;3.13;;;4.70;99.90;;;;;;5043571;28;20053;-82
2021/04/03 07:11:46;;;;;;;7.78;3.13;;;4.50;99.90;;;;;;5037096;28;20037;-81
2021/04/03 07:14:14;;;;;;;4.40;2.25;;;4.40;99.90;;;;;;5041309;28;20044;-82
2021/04/03 07:16:40;;;;;;;8.05;3.45;;;4.50;99.90;;;;;;5039894;28;20041;-81
2021/04/03 07:19:09;;;;;;;6.00;1.55;;;4.70;99.90;;;;;;5038216;28;20554;-82
2021/04/03 07:21:35;;;;;;;9.30;3.22;;;4.70;99.90;;;;;;5036596;28;20085;-83
2021/04/03 07:24:01;;;;;;;5.25;2.78;;;4.70;99.90;;;;;;5041625;28;20090;-83
2021/04/03 07:26:27;;;;;;;7.15;3.75;;;4.70;99.90;;;;;;5042676;28;20037;-82
2021/04/03 07:28:53;;;;;;;10.93;3.72;;;4.90;99.90;;;;;;5045115;28;20516;-82
2021/04/03 07:31:39;;;;;;;6.88;3.22;;;5.00;99.90;;;;;;5045976;28;20030;-83
2021/04/03 07:34:05;;;;;;;7.10;3.08;;;4.90;99.90;;;;;;5046450;28;20121;-84
2021/04/03 07:36:36;;;;;;;6.78;3.60;;;4.80;99.90;;;;;;5043218;28;20041;-77
2021/04/03 07:39:06;;;;;;;7.35;3.00;;;4.90;99.90;;;;;;5041032;28;20067;-80
2021/04/03 07:41:38;;;;;;;6.57;2.67;;;5.10;99.90;;;;;;5040226;28;20108;-79
2021/04/03 07:44:14;;;;;;;7.65;3.55;;;5.00;99.90;;;;;;5047136;28;20033;-81
2021/04/03 07:46:42;;;;;;;9.60;3.53;;;5.10;99.90;;;;;;5041111;28;20086;-79
2021/04/03 07:49:08;;;;;;;6.38;2.67;;;5.10;99.90;;;;;;5051630;28;20534;-78
2021/04/03 07:51:34;;;;;;;6.63;3.10;;;4.90;99.90;;;;;;5044467;28;20124;-77
2021/04/03 07:54:04;;;;;;;7.55;3.28;;;5.20;99.90;;;;;;5039429;28;20057;-78
2021/04/03 07:56:51;;;;;;;3.13;1.73;;;5.40;99.90;;;;;;5038323;28;20124;-76
2021/04/03 07:59:16;;;;;;;9.20;3.40;;;5.20;99.90;;;;;;5036206;28;20044;-76
2021/04/03 08:01:43;;;;;;;6.57;3.50;;;5.50;99.90;;;;;;5039384;28;20377;-74
2021/04/03 08:04:10;;;;;;;6.70;3.25;;;5.30;99.90;;;;;;5047825;28;20404;-75
2021/04/03 08:06:38;;;;;;;8.57;2.95;;;5.00;99.90;;;;;;5038866;28;20449;-75
2021/04/03 08:09:23;;;;;;;7.05;3.30;;;4.90;99.90;;;;;;5046893;28;20037;-76
2021/04/03 08:11:49;;;;;;;6.28;3.10;;;5.10;99.90;;;;;;5031217;28;20413;-78
2021/04/03 08:14:16;;;;;;;6.22;3.35;;;5.20;99.90;;;;;;5035842;28;20109;-78
2021/04/03 08:16:43;;;;;;;6.32;3.50;;;5.40;99.90;;;;;;5039342;28;20496;-78
2021/04/03 08:19:09;;;;;;;9.90;3.47;;;5.70;99.90;;;;;;5041959;28;20144;-79
2021/04/03 08:21:47;;;;;;;6.60;3.00;;;5.60;99.90;;;;;;5041987;28;20381;-78
2021/04/03 08:24:17;;;;;;;7.93;3.33;;;5.20;99.90;;;;;;5036840;28;20488;-78
2021/04/03 08:26:43;;;;;;;5.10;2.60;;;5.20;99.90;;;;;;5037837;28;20108;-78
2021/04/03 08:29:25;;;;;;;6.57;3.28;;;5.10;99.90;;;;;;5038453;28;20029;-78
2021/04/03 08:31:51;;;;;;;8.00;2.90;;;5.30;99.90;;;;;;5041139;28;20029;-77
2021/04/03 08:34:17;;;;;;;7.68;3.20;;;5.50;99.90;;;;;;5040066;28;20018;-77
2021/04/03 08:36:43;;;;;;;6.63;2.40;;;5.70;99.90;;;;;;5032038;28;20041;-78
2021/04/03 08:39:11;;;;;;;6.47;3.45;;;5.50;99.90;;;;;;5041246;28;20025;-77
2021/04/03 08:41:38;;;;;;;5.00;3.20;;;5.40;99.90;;;;;;5038497;28;20029;-77
2021/04/03 08:44:16;;;;;;;7.15;3.35;;;5.50;99.90;;;;;;5044690;28;20120;-78
2021/04/03 08:46:43;;;;;;;8.52;3.58;;;6.00;99.90;;;;;;5033042;28;20028;-78
2021/04/03 08:49:10;;;;;;;7.18;2.95;;;6.40;99.90;;;;;;5037020;28;20069;-78
2021/04/03 08:51:36;;;;;;;7.53;3.25;;;6.60;99.90;;;;;;5034695;28;20112;-77
2021/04/03 08:54:03;;;;;;;6.10;2.88;;;6.60;99.90;;;;;;5044411;28;20068;-77
2021/04/03 08:56:36;;;;;;;7.53;3.50;;;6.00;99.90;;;;;;5059249;28;20043;-77
2021/04/03 08:59:07;;;;;;;8.75;3.33;;;5.90;99.90;;;;;;5063651;28;20098;-78
2021/04/03 09:01:36;;;;;;;7.50;3.25;;;5.90;99.90;;;;;;5062876;28;20056;-80
2021/04/03 09:04:09;;;;;;;5.68;2.97;;;6.30;99.90;;;;;;5065895;28;20519;-76
2021/04/03 09:06:57;;;;;;;4.80;3.10;;;6.10;99.90;;;;;;5063575;28;20025;-76
2021/04/03 09:09:24;;;;;;;8.02;3.55;;;6.50;99.90;;;;;;5066399;28;20488;-75
2021/04/03 09:12:01;;;;;;;7.22;3.92;;;6.70;99.90;;;;;;5054969;28;20029;-76
2021/04/03 09:14:36;;;;;;;7.47;3.72;;;6.60;99.90;;;;;;5067678;28;20502;-76
2021/04/03 09:17:04;;;;;;;6.63;3.08;;;7.00;99.90;;;;;;5068584;28;20037;-78
2021/04/03 09:19:35;;;;;;;7.95;3.20;;;7.00;99.90;;;;;;5059702;28;20054;-76
2021/04/03 09:22:02;;;;;;;4.72;2.38;;;7.00;99.90;;;;;;5057447;28;20064;-76
2021/04/03 09:24:42;;;;;;;7.43;2.80;;;6.60;99.90;;;;;;5062971;28;20115;-81
2021/04/03 09:27:18;;;;;;;5.50;2.80;;;6.30;99.90;;;;;;5065066;28;20447;-81
2021/04/03 09:29:55;;;;;;;7.43;3.25;;;6.40;99.90;;;;;;5065352;28;20044;-80
2021/04/03 09:32:21;;;;;;;8.70;3.40;;;6.30;99.90;;;;;;5064655;28;20013;-76
2021/04/03 09:34:46;;;;;;;7.28;3.45;;;6.30;99.90;;;;;;5062380;28;20810;-76
2021/04/03 09:37:17;;;;;;;7.85;3.55;;;6.50;99.90;;;;;;5063707;28;20122;-76
2021/04/03 09:39:50;;;;;;;8.43;3.17;;;6.60;99.90;;;;;;5061440;28;20039;-81
2021/04/03 09:42:18;;;;;;;6.60;3.22;;;6.30;99.90;;;;;;5065025;28;20495;-78
2021/04/03 09:44:45;;;;;;;7.47;3.40;;;6.50;99.90;;;;;;5060480;28;20407;-76
2021/04/03 09:47:12;;;;;;;6.43;3.53;;;6.80;99.90;;;;;;5064569;28;20025;-76
2021/04/03 09:49:41;;;;;;;7.32;2.92;;;6.80;99.90;;;;;;5075756;28;20024;-76
2021/04/03 09:52:08;;;;;;;6.53;3.17;;;6.60;99.90;;;;;;5061869;28;20095;-77
2021/04/03 09:54:34;;;;;;;5.35;2.65;;;6.50;99.90;;;;;;5063528;28;20028;-78
2021/04/03 09:57:03;;;;;;;6.43;3.13;;;6.20;99.90;;;;;;5062339;28;20403;-77
2021/04/03 09:59:29;;;;;;;4.47;2.43;;;6.40;99.90;;;;;;5061636;28;20070;-81
2021/04/03 10:01:56;;;;;;;7.32;3.45;;;6.40;99.90;;;;;;5060908;28;20579;-77
2021/04/03 10:04:23;;;;;;;5.43;3.00;;;6.50;99.90;;;;;;5073121;28;20500;-77
2021/04/03 10:06:49;;;;;;;2.95;2.08;;;6.70;99.90;;;;;;5064773;28;20027;-78
2021/04/03 10:09:14;;;;;;;6.18;3.45;;;6.40;99.90;;;;;;5060791;28;20100;-79
2021/04/03 10:11:40;;;;;;;3.35;1.75;;;6.40;99.90;;;;;;5051282;28;20189;-75
2021/04/03 10:14:05;;;;;;;10.52;3.25;;;6.30;99.90;;;;;;5062470;28;20093;-79
2021/04/03 10:16:31;;;;;;;7.63;3.60;;;6.10;99.90;;;;;;5071017;28;20060;-79
2021/04/03 10:18:56;;;;;;;5.05;2.72;;;6.20;99.90;;;;;;5058956;28;20124;-81
2021/04/03 10:21:23;;;;;;;5.68;2.85;;;6.50;99.90;;;;;;5060016;28;20452;-77
2021/04/03 10:23:49;;;;;;;6.10;2.70;;;6.50;99.90;;;;;;5056679;28;20175;-78
2021/04/03 10:26:14;;;;;;;6.25;2.90;;;6.40;99.90;;;;;;5064900;28;20029;-80
2021/04/03 10:28:40;;;;;;;5.97;2.90;;;6.60;99.90;;;;;;5070157;28;20025;-76
2021/04/03 10:31:05;;;;;;;8.25;3.40;;;6.60;99.90;;;;;;5065555;28;20028;-81
2021/04/03 10:33:31;;;;;;;8.60;3.38;;;6.80;99.90;;;;;;5061071;28;20033;-77
2021/04/03 10:35:57;;;;;;;6.78;3.28;;;6.80;99.90;;;;;;5062986;28;20029;-80
2021/04/03 10:38:22;;;;;;;5.85;3.28;;;7.00;99.90;;;;;;5052793;28;20033;-78
2021/04/03 10:40:48;;;;;;;5.38;3.38;;;6.90;99.90;;;;;;5058988;28;20042;-79
2021/04/03 10:43:13;;;;;;;6.25;2.85;;;6.60;99.90;;;;;;5052930;28;20025;-78
2021/04/03 10:45:40;;;;;;;5.30;2.72;;;6.70;99.90;;;;;;5056856;28;20024;-79
2021/04/03 10:48:06;;;;;;;6.28;3.25;;;6.80;99.90;;;;;;5067167;28;20025;-79
2021/04/03 10:50:32;;;;;;;6.45;3.17;;;6.80;99.90;;;;;;5058140;28;20039;-80
2021/04/03 10:52:57;;;;;;;5.70;2.65;;;6.60;99.90;;;;;;5071456;28;20028;-79
2021/04/03 10:55:23;;;;;;;7.43;2.67;;;6.90;99.90;;;;;;5057778;28;20051;-79
2021/04/03 10:57:49;;;;;;;4.45;2.38;;;7.00;99.90;;;;;;5065299;28;20071;-81
2021/04/03 11:00:15;;;;;;;5.75;2.75;;;7.10;99.90;;;;;;5060689;28;20025;-78
2021/04/03 11:02:41;;;;;;;5.70;2.80;;;7.20;99.90;;;;;;5060156;28;20437;-77
2021/04/03 11:05:07;;;;;;;4.97;2.67;;;7.50;99.90;;;;;;5058719;28;20041;-77
2021/04/03 11:07:32;;;;;;;6.80;2.40;;;7.40;99.90;;;;;;5057039;28;20067;-78
2021/04/03 11:09:58;;;;;;;7.30;3.15;;;7.80;99.90;;;;;;5058429;28;20032;-79
2021/04/03 11:12:23;;;;;;;6.35;2.85;;;7.60;99.90;;;;;;5053818;28;20083;-76
2021/04/03 11:14:49;;;;;;;5.18;2.50;;;7.90;99.90;;;;;;5054811;28;20373;-77
2021/04/03 11:17:14;;;;;;;6.30;2.67;;;8.00;99.90;;;;;;5064758;28;20364;-78
2021/04/03 11:19:40;;;;;;;6.50;2.67;;;8.00;99.90;;;;;;5063722;28;20033;-80
2021/04/03 11:22:06;;;;;;;6.07;3.03;;;7.80;99.90;;;;;;5070888;28;20387;-81
2021/04/03 11:24:33;;;;;;;4.93;2.85;;;7.50;99.90;;;;;;5062545;28;20038;-79
2021/04/03 11:27:00;;;;;;;8.68;2.95;;;7.30;99.90;;;;;;5050830;28;20107;-77
2021/04/03 11:29:26;;;;;;;7.85;3.67;;;7.40;99.90;;;;;;5055786;28;20031;-77
2021/04/03 11:31:51;;;;;;;6.43;2.88;;;7.20;99.90;;;;;;5062373;28;20484;-79
2021/04/03 11:34:17;;;;;;;5.88;2.80;;;7.50;99.90;;;;;;5073052;28;20032;-80
2021/04/03 11:36:42;;;;;;;7.07;3.00;;;7.70;99.90;;;;;;5063425;28;20527;-79
2021/04/03 11:39:08;;;;;;;4.97;2.88;;;7.80;99.90;;;;;;5063442;28;20037;-78
2021/04/03 11:41:34;;;;;;;5.88;2.60;;;7.80;99.90;;;;;;5058577;28;20101;-78
2021/04/03 11:43:59;;;;;;;5.65;2.83;;;7.90;99.90;;;;;;5069850;28;20497;-80
2021/04/03 11:46:25;;;;;;;5.90;2.58;;;7.50;99.90;;;;;;5063246;28;20032;-78
2021/04/03 11:48:51;;;;;;;4.50;2.58;;;7.60;99.90;;;;;;5057547;28;20032;-83
2021/04/03 11:51:17;;;;;;;7.35;2.92;;;7.70;99.90;;;;;;5063037;28;20061;-78
2021/04/03 11:53:43;;;;;;;5.78;2.78;;;7.70;99.90;;;;;;5050225;28;20472;-78
2021/04/03 11:56:08;;;;;;;7.75;3.10;;;7.70;99.90;;;;;;5060167;28;20086;-77
2021/04/03 11:58:34;;;;;;;5.50;2.70;;;7.70;99.90;;;;;;5058183;28;20037;-78
2021/04/03 12:01:03;;;;;;;5.25;2.60;;;7.70;99.90;;;;;;5056532;28;20037;-77
2021/04/03 12:03:32;;;;;;;4.95;2.38;;;7.90;99.90;;;;;;5061051;28;20048;-77
2021/04/03 12:05:57;;;;;;;4.22;2.40;;;7.80;99.90;;;;;;5064155;28;20089;-78
2021/04/03 12:08:24;;;;;;;6.65;2.30;;;7.70;99.90;;;;;;5057347;28;20028;-78
2021/04/03 12:10:50;;;;;;;6.50;2.70;;;7.50;99.90;;;;;;5063764;28;20035;-77
2021/04/03 12:13:16;;;;;;;8.73;2.85;;;7.40;99.90;;;;;;5063478;28;20587;-78
2021/04/03 12:15:42;;;;;;;6.82;2.75;;;6.90;99.90;;;;;;5070567;28;20438;-79
2021/04/03 12:18:08;;;;;;;9.57;2.53;;;7.10;99.90;;;;;;5064538;28;20442;-78
2021/04/03 12:20:33;;;;;;;6.80;3.17;;;7.10;99.90;;;;;;5066989;28;20024;-78
2021/04/03 12:23:00;;;;;;;6.03;2.33;;;7.00;99.90;;;;;;5068513;28;20368;-81
2021/04/03 12:25:26;;;;;;;6.78;2.38;;;6.90;99.90;;;;;;5064837;28;20099;-81
2021/04/03 12:27:52;;;;;;;3.78;2.00;;;6.70;99.90;;;;;;5066682;28;20032;-79
2021/04/03 12:30:18;;;;;;;3.50;2.05;;;6.80;99.90;;;;;;5065153;28;20063;-79
2021/04/03 12:32:44;;;;;;;6.32;2.10;;;6.80;99.90;;;;;;5065520;28;20040;-77
2021/04/03 12:35:09;;;;;;;4.68;2.00;;;6.80;99.90;;;;;;5065042;28;20032;-77
2021/04/03 12:37:35;;;;;;;6.05;2.30;;;7.00;99.90;;;;;;5065648;28;20139;-78
2021/04/03 12:40:03;;;;;;;4.55;1.88;;;7.10;99.90;;;;;;5064497;28;20404;-77
2021/04/03 12:42:30;;;;;;;5.40;2.35;;;6.90;99.90;;;;;;5061251;28;20037;-76
2021/04/03 12:44:55;;;;;;;6.60;2.58;;;7.00;99.90;;;;;;5059883;28;20020;-78
2021/04/03 12:47:21;;;;;;;4.57;2.15;;;7.10;99.90;;;;;;5057586;28;20033;-77
2021/04/03 12:49:46;;;;;;;3.78;2.08;;;7.20;99.90;;;;;;5061597;28;20036;-77
2021/04/03 12:52:12;;;;;;;6.60;2.30;;;7.40;99.90;;;;;;5067406;28;20417;-78
2021/04/03 12:54:38;;;;;;;3.95;2.20;;;7.60;99.90;;;;;;5061024;28;20405;-78
2021/04/03 12:57:04;;;;;;;5.75;1.85;;;7.70;99.90;;;;;;5051209;28;20098;-76
2021/04/03 12:59:30;;;;;;;5.93;2.10;;;7.90;99.90;;;;;;5059573;28;20436;-78